createdAt,value
2022-08-03T00:00:36.621Z,9.40
2022-08-03T00:03:05.151Z,9.13
2022-08-03T00:05:34.134Z,8.50
2022-08-03T00:08:02.461Z,9.07
2022-08-03T00:10:32.394Z,8.88
2022-08-03T00:13:00.778Z,9.13
2022-08-03T00:15:29.151Z,11.30
2022-08-03T00:17:57.462Z,11.00
2022-08-03T00:20:26.183Z,11.70
2022-08-03T00:22:54.416Z,13.32
2022-08-03T00:25:22.729Z,12.63
2022-08-03T00:27:52.567Z,14.63
2022-08-03T00:30:20.957Z,14.05
2022-08-03T00:32:49.579Z,12.40
2022-08-03T00:35:29.352Z,11.18
2022-08-03T00:38:05.559Z,11.23
2022-08-03T00:40:34.457Z,11.38
2022-08-03T00:43:06.930Z,10.10
2022-08-03T00:45:37.196Z,9.20
2022-08-03T00:48:07.087Z,9.55
2022-08-03T00:50:55.741Z,8.98
2022-08-03T00:53:24.147Z,8.68
2022-08-03T00:55:52.587Z,8.37
2022-08-03T00:58:22.574Z,7.82
2022-08-03T01:00:51.169Z,7.30
2022-08-03T01:03:19.503Z,7.40
2022-08-03T01:05:57.373Z,7.33
2022-08-03T01:08:38.151Z,7.03
2022-08-03T01:11:14.732Z,7.00
2022-08-03T01:14:00.289Z,6.75
2022-08-03T01:16:38.562Z,7.22
2022-08-03T01:19:26.732Z,6.68
2022-08-03T01:22:07.145Z,7.10
2022-08-03T01:24:45.713Z,6.65
2022-08-03T01:27:19.886Z,6.18
2022-08-03T01:30:03.009Z,6.38
2022-08-03T01:32:52.496Z,7.00
2022-08-03T01:35:35.435Z,5.90
2022-08-03T01:38:13.085Z,6.65
2022-08-03T01:40:43.025Z,7.28
2022-08-03T01:44:01.242Z,7.22
2022-08-03T01:46:11.007Z,8.10
2022-08-03T01:48:41.069Z,8.20
2022-08-03T01:51:11.777Z,7.40
2022-08-03T01:53:42.964Z,8.07
2022-08-03T01:56:11.732Z,10.95
2022-08-03T01:58:42.116Z,8.85
2022-08-03T02:01:13.821Z,9.68
2022-08-03T02:03:53.526Z,9.68
2022-08-03T02:07:00.668Z,10.13
2022-08-03T02:09:22.908Z,10.00
2022-08-03T02:11:53.486Z,10.50
2022-08-03T02:14:23.457Z,9.85
2022-08-03T02:16:54.236Z,9.93
2022-08-03T02:19:23.177Z,9.05
2022-08-03T02:21:57.448Z,9.32
2022-08-03T02:24:30.166Z,9.48
2022-08-03T02:27:00.585Z,9.68
2022-08-03T02:29:39.159Z,9.45
2022-08-03T02:32:15.667Z,8.98
2022-08-03T02:34:48.202Z,8.90
2022-08-03T02:37:19.670Z,8.85
2022-08-03T02:39:49.307Z,8.88
2022-08-03T02:42:21.133Z,9.38
2022-08-03T02:44:54.612Z,9.55
2022-08-03T02:47:26.073Z,8.80
2022-08-03T02:49:58.636Z,7.57
2022-08-03T02:52:30.052Z,7.80
2022-08-03T02:55:01.050Z,7.78
2022-08-03T02:57:32.900Z,7.63
2022-08-03T03:00:02.359Z,9.10
2022-08-03T03:02:33.351Z,7.28
2022-08-03T03:05:54.804Z,9.82
2022-08-03T03:07:53.202Z,9.68
2022-08-03T03:10:24.189Z,9.65
2022-08-03T03:12:54.674Z,9.70
2022-08-03T03:15:23.761Z,10.55
2022-08-03T03:17:54.821Z,9.98
2022-08-03T03:20:29.096Z,9.95
2022-08-03T03:23:00.722Z,11.32
2022-08-03T03:25:30.185Z,9.80
2022-08-03T03:27:59.134Z,9.68
2022-08-03T03:30:27.747Z,9.68
2022-08-03T03:32:58.728Z,8.88
2022-08-03T03:35:28.368Z,9.45
2022-08-03T03:37:56.764Z,9.80
2022-08-03T03:40:25.528Z,9.57
2022-08-03T03:42:53.809Z,10.23
2022-08-03T03:45:23.799Z,9.52
2022-08-03T03:47:52.412Z,8.98
2022-08-03T03:50:24.035Z,9.35
2022-08-03T03:52:52.470Z,9.40
2022-08-03T03:55:20.720Z,8.73
2022-08-03T03:57:49.013Z,9.37
2022-08-03T04:00:19.686Z,8.55
2022-08-03T04:02:48.475Z,9.00
2022-08-03T04:05:34.989Z,8.77
2022-08-03T04:08:28.123Z,8.52
2022-08-03T04:11:08.635Z,8.30
2022-08-03T04:13:39.914Z,8.30
2022-08-03T04:16:10.536Z,8.57
2022-08-03T04:18:41.661Z,7.78
2022-08-03T04:21:12.680Z,8.00
2022-08-03T04:23:47.381Z,7.28
2022-08-03T04:26:20.909Z,7.68
2022-08-03T04:28:51.460Z,7.80
2022-08-03T04:31:23.266Z,7.15
2022-08-03T04:33:53.836Z,6.38
2022-08-03T04:36:26.158Z,8.00
2022-08-03T04:39:04.885Z,7.07
2022-08-03T04:42:02.202Z,7.55
2022-08-03T04:44:28.343Z,7.50
2022-08-03T04:46:58.260Z,7.43
2022-08-03T04:49:28.220Z,7.18
2022-08-03T04:51:56.706Z,7.57
2022-08-03T04:54:26.455Z,7.75
2022-08-03T04:56:54.833Z,8.20
2022-08-03T04:59:23.154Z,7.30
2022-08-03T05:01:51.446Z,7.77
2022-08-03T05:04:20.674Z,8.03
2022-08-03T05:06:48.944Z,8.05
2022-08-03T05:09:50.066Z,7.18
2022-08-03T05:12:13.955Z,7.72
2022-08-03T05:14:42.373Z,7.97
2022-08-03T05:17:10.699Z,8.30
2022-08-03T05:19:39.013Z,8.13
2022-08-03T05:22:07.336Z,8.57
2022-08-03T05:24:35.622Z,8.10
2022-08-03T05:27:03.869Z,8.10
2022-08-03T05:29:34.591Z,7.50
2022-08-03T05:32:08.086Z,8.48
2022-08-03T05:34:36.846Z,7.80
2022-08-03T05:37:05.148Z,7.17
2022-08-03T05:39:33.395Z,7.87
2022-08-03T05:42:02.275Z,7.93
2022-08-03T05:44:31.822Z,7.82
2022-08-03T05:47:01.504Z,8.15
2022-08-03T05:49:29.827Z,7.95
2022-08-03T05:52:00.200Z,7.47
2022-08-03T05:54:57.425Z,7.47
2022-08-03T05:57:26.185Z,6.80
2022-08-03T05:59:58.090Z,6.70
2022-08-03T06:02:28.964Z,7.15
2022-08-03T06:04:57.363Z,7.43
2022-08-03T06:07:25.724Z,14.13
2022-08-03T06:10:34.132Z,15.60
2022-08-03T06:12:42.546Z,10.35
2022-08-03T06:15:11.824Z,10.65
2022-08-03T06:17:48.370Z,7.32
2022-08-03T06:20:18.690Z,6.97
2022-08-03T06:22:50.790Z,10.35
2022-08-03T06:25:28.981Z,8.57
2022-08-03T06:27:57.383Z,6.82
2022-08-03T06:30:25.905Z,7.43
2022-08-03T06:32:55.579Z,6.95
2022-08-03T06:35:24.063Z,7.45
2022-08-03T06:37:53.141Z,7.30
2022-08-03T06:40:29.199Z,7.38
2022-08-03T06:42:57.726Z,7.05
2022-08-03T06:45:26.332Z,7.93
2022-08-03T06:48:06.779Z,7.05
2022-08-03T06:50:36.616Z,7.45
2022-08-03T06:53:05.774Z,7.03
2022-08-03T06:58:10.732Z,7.75
2022-08-03T07:00:39.104Z,7.50
2022-08-03T07:03:08.824Z,7.60
2022-08-03T07:05:37.201Z,7.07
2022-08-03T07:08:05.903Z,7.50
2022-08-03T07:10:34.178Z,7.32
2022-08-03T07:13:02.452Z,7.13
2022-08-03T07:15:53.715Z,7.75
2022-08-03T07:18:27.564Z,7.50
2022-08-03T07:20:58.420Z,6.47
2022-08-03T07:23:26.898Z,7.40
2022-08-03T07:25:55.222Z,7.00
2022-08-03T07:28:23.502Z,6.90
2022-08-03T07:30:52.060Z,7.07
2022-08-03T07:33:21.696Z,8.10
2022-08-03T07:35:50.077Z,8.02
2022-08-03T07:38:21.077Z,7.30
2022-08-03T07:40:49.748Z,8.05
2022-08-03T07:43:18.083Z,7.10
2022-08-03T07:45:46.402Z,7.90
2022-08-03T07:48:14.660Z,7.95
2022-08-03T07:50:44.548Z,7.67
2022-08-03T07:53:12.805Z,6.93
2022-08-03T07:55:41.301Z,8.20
2022-08-03T07:58:12.667Z,8.18
2022-08-03T08:00:41.265Z,14.13
2022-08-03T08:03:10.256Z,9.13
2022-08-03T08:05:38.557Z,9.90
2022-08-03T08:08:08.350Z,12.73
2022-08-03T08:10:36.949Z,10.93
2022-08-03T08:13:06.096Z,6.70
2022-08-03T08:18:02.977Z,7.47
2022-08-03T08:20:34.959Z,8.88
2022-08-03T08:23:35.453Z,9.07
2022-08-03T08:25:57.941Z,6.75
2022-08-03T08:28:32.808Z,7.82
2022-08-03T08:31:01.816Z,8.00
2022-08-03T08:33:47.837Z,7.25
2022-08-03T08:36:19.084Z,6.40
2022-08-03T08:38:49.201Z,6.07
2022-08-03T08:41:17.740Z,6.90
2022-08-03T08:43:46.045Z,6.35
2022-08-03T08:46:23.286Z,6.43
2022-08-03T08:48:54.315Z,6.13
2022-08-03T08:51:24.073Z,6.57
2022-08-03T08:54:15.002Z,6.28
2022-08-03T08:56:45.071Z,6.07
2022-08-03T08:59:13.566Z,6.10
2022-08-03T09:01:41.830Z,6.03
2022-08-03T09:04:10.703Z,7.17
2022-08-03T09:06:38.976Z,6.00
2022-08-03T09:09:08.416Z,6.40
2022-08-03T09:11:53.692Z,6.03
2022-08-03T09:14:36.586Z,5.93
2022-08-03T09:17:16.989Z,5.88
2022-08-03T09:20:06.395Z,5.88
2022-08-03T09:22:34.708Z,6.30
2022-08-03T09:25:23.814Z,5.83
2022-08-03T09:27:54.704Z,7.03
2022-08-03T09:30:34.789Z,6.70
2022-08-03T09:33:04.293Z,6.35
2022-08-03T09:35:52.977Z,6.43
2022-08-03T09:38:24.293Z,6.40
2022-08-03T09:40:56.020Z,5.95
2022-08-03T09:43:29.642Z,7.15
2022-08-03T09:46:04.624Z,6.38
2022-08-03T09:48:35.144Z,7.03
2022-08-03T09:51:13.611Z,7.53
2022-08-03T09:54:00.336Z,7.03
2022-08-03T09:56:40.465Z,6.85
2022-08-03T09:59:10.824Z,7.15
2022-08-03T10:01:42.020Z,8.68
2022-08-03T10:04:16.921Z,6.57
2022-08-03T10:06:46.391Z,6.85
2022-08-03T10:09:16.633Z,6.18
2022-08-03T10:11:47.044Z,6.53
2022-08-03T10:14:20.090Z,6.22
2022-08-03T10:16:49.600Z,6.22
2022-08-03T10:19:18.553Z,5.95
2022-08-03T10:21:51.287Z,5.50
2022-08-03T10:24:26.424Z,5.50
2022-08-03T10:27:02.488Z,5.72
2022-08-03T10:29:36.128Z,5.20
2022-08-03T10:32:10.638Z,5.53
2022-08-03T10:34:44.662Z,5.10
2022-08-03T10:37:16.778Z,4.95
2022-08-03T10:39:54.448Z,4.95
2022-08-03T10:42:26.390Z,4.90
2022-08-03T10:45:02.500Z,4.60
2022-08-03T10:47:31.820Z,4.38
2022-08-03T10:50:01.263Z,3.85
2022-08-03T10:52:33.799Z,4.05
2022-08-03T10:55:48.262Z,4.28
2022-08-03T10:58:30.341Z,4.10
2022-08-03T11:01:00.593Z,4.10
2022-08-03T11:03:28.888Z,4.13
2022-08-03T11:06:17.598Z,3.40
2022-08-03T11:08:46.663Z,3.50
2022-08-03T11:11:28.740Z,3.58
2022-08-03T11:14:03.321Z,3.38
2022-08-03T11:16:35.751Z,3.50
2022-08-03T11:19:07.812Z,3.47
2022-08-03T11:21:58.230Z,3.13
2022-08-03T11:24:59.902Z,2.85
2022-08-03T11:27:32.947Z,3.53
2022-08-03T11:30:03.700Z,3.45
2022-08-03T11:33:01.783Z,3.08
2022-08-03T11:35:31.914Z,2.75
2022-08-03T11:38:05.808Z,2.20
2022-08-03T11:40:35.709Z,2.20
2022-08-03T11:43:04.938Z,2.20
2022-08-03T11:45:33.292Z,2.65
2022-08-03T11:48:14.937Z,2.28
2022-08-03T11:50:45.381Z,1.67
2022-08-03T11:53:18.368Z,1.90
2022-08-03T11:55:49.931Z,1.52
2022-08-03T11:59:17.517Z,1.50
2022-08-03T12:01:10.746Z,1.60
2022-08-03T12:03:40.539Z,1.63
2022-08-03T12:06:11.353Z,1.25
2022-08-03T12:08:40.336Z,1.13
2022-08-03T12:11:10.729Z,1.30
2022-08-03T12:14:44.816Z,1.23
2022-08-03T12:16:29.827Z,1.30
2022-08-03T12:19:01.341Z,1.30
2022-08-03T12:21:30.545Z,1.20
2022-08-03T12:24:00.566Z,1.10
2022-08-03T12:26:30.486Z,1.08
2022-08-03T12:28:58.873Z,1.25
2022-08-03T12:31:27.479Z,1.00
2022-08-03T12:34:05.210Z,0.90
2022-08-03T12:36:35.453Z,1.70
2022-08-03T12:39:06.476Z,1.10
2022-08-03T12:41:36.657Z,0.90
2022-08-03T12:44:06.591Z,1.08
2022-08-03T12:46:36.726Z,1.58
2022-08-03T12:49:11.456Z,2.08
2022-08-03T12:51:57.271Z,1.25
2022-08-03T12:54:26.525Z,1.17
2022-08-03T12:57:02.614Z,0.82
2022-08-03T12:59:35.392Z,0.73
2022-08-03T13:02:16.613Z,0.73
2022-08-03T13:04:48.469Z,0.70
2022-08-03T13:07:18.400Z,0.68
2022-08-03T13:09:49.828Z,0.70
2022-08-03T13:12:20.868Z,0.70
2022-08-03T13:14:51.970Z,0.75
2022-08-03T13:17:21.168Z,3.42
2022-08-03T13:19:51.601Z,2.90
2022-08-03T13:22:21.896Z,0.73
2022-08-03T13:24:53.304Z,1.77
2022-08-03T13:28:01.492Z,0.98
2022-08-03T13:30:11.194Z,1.13
2022-08-03T13:32:40.254Z,0.98
2022-08-03T13:37:39.365Z,1.88
2022-08-03T13:40:11.593Z,1.17
2022-08-03T13:42:40.262Z,1.48
2022-08-03T13:45:09.391Z,1.65
2022-08-03T13:50:06.882Z,0.93
2022-08-03T13:52:37.420Z,1.00
2022-08-03T13:55:08.138Z,2.15
2022-08-03T13:58:02.973Z,2.90
2022-08-03T14:00:28.972Z,1.10
2022-08-03T14:03:05.318Z,1.77
2022-08-03T14:05:39.046Z,2.65
2022-08-03T14:08:09.152Z,2.25
2022-08-03T14:10:38.921Z,3.60
2022-08-03T14:13:07.952Z,1.65
2022-08-03T14:15:37.284Z,3.22
2022-08-03T14:18:15.716Z,3.17
2022-08-03T14:20:57.962Z,1.20
2022-08-03T14:23:29.386Z,3.00
2022-08-03T14:25:58.215Z,1.92
2022-08-03T14:28:26.587Z,1.20
2022-08-03T14:30:56.290Z,1.30
2022-08-03T14:33:24.926Z,1.42
2022-08-03T14:35:53.523Z,1.17
2022-08-03T14:38:22.441Z,1.10
2022-08-03T14:40:53.221Z,1.50
2022-08-03T14:43:21.535Z,1.50
2022-08-03T14:45:52.427Z,1.70
2022-08-03T14:50:31.146Z,1.33
2022-08-03T14:51:10.380Z,1.42
2022-08-03T14:53:38.667Z,1.23
2022-08-03T14:56:10.680Z,1.20
2022-08-03T14:58:39.711Z,1.10
2022-08-03T15:02:03.286Z,1.13
2022-08-03T15:03:57.160Z,1.20
2022-08-03T15:06:25.694Z,1.50
2022-08-03T15:09:24.331Z,2.22
2022-08-03T15:11:44.458Z,1.40
2022-08-03T15:14:13.534Z,1.48
2022-08-03T15:16:43.625Z,1.17
2022-08-03T15:20:00.773Z,1.20
2022-08-03T15:22:01.033Z,1.45
2022-08-03T15:24:30.416Z,1.48
2022-08-03T15:27:00.303Z,1.35
2022-08-03T15:30:09.550Z,1.60
2022-08-03T15:32:17.138Z,1.52
2022-08-03T15:34:50.363Z,2.43
2022-08-03T15:37:20.897Z,2.40
2022-08-03T15:39:58.844Z,4.50
2022-08-03T15:42:31.344Z,1.75
2022-08-03T15:44:59.901Z,1.60
2022-08-03T15:47:28.417Z,2.17
2022-08-03T15:49:56.848Z,1.90
2022-08-03T15:52:25.163Z,1.70
2022-08-03T15:54:53.510Z,2.00
2022-08-03T15:57:22.657Z,1.83
2022-08-03T15:59:53.179Z,1.98
2022-08-03T16:02:21.596Z,1.73
2022-08-03T16:04:49.876Z,1.70
2022-08-03T16:07:38.167Z,2.20
2022-08-03T16:10:07.100Z,2.37
2022-08-03T16:12:35.442Z,3.40
2022-08-03T16:15:05.574Z,2.75
2022-08-03T16:17:33.944Z,2.53
2022-08-03T16:20:04.161Z,3.73
2022-08-03T16:22:44.319Z,4.45
2022-08-03T16:25:16.379Z,2.15
2022-08-03T16:28:07.362Z,2.83
2022-08-03T16:30:35.021Z,3.20
2022-08-03T16:33:04.039Z,2.58
2022-08-03T16:35:32.716Z,2.75
2022-08-03T16:38:01.033Z,2.38
2022-08-03T16:40:29.414Z,2.17
2022-08-03T16:42:57.667Z,2.10
2022-08-03T16:45:26.295Z,2.43
2022-08-03T16:48:05.139Z,3.40
2022-08-03T16:50:35.552Z,2.28
2022-08-03T16:53:09.039Z,2.17
2022-08-03T16:55:48.387Z,1.70
2022-08-03T16:58:34.627Z,4.65
2022-08-03T17:01:10.842Z,1.90
2022-08-03T17:04:02.340Z,2.33
2022-08-03T17:06:34.355Z,2.00
2022-08-03T17:09:04.087Z,3.20
2022-08-03T17:11:43.068Z,1.98
2022-08-03T17:14:15.628Z,3.70
2022-08-03T17:19:23.510Z,2.17
2022-08-03T17:22:01.190Z,3.53
2022-08-03T17:24:41.105Z,2.47
2022-08-03T17:27:18.618Z,2.80
2022-08-03T17:30:07.524Z,2.97
2022-08-03T17:32:42.796Z,4.72
2022-08-03T17:35:12.730Z,4.50
2022-08-03T17:37:58.363Z,4.55
2022-08-03T17:40:32.286Z,5.27
2022-08-03T17:45:52.551Z,4.30
2022-08-03T17:48:18.541Z,3.13
2022-08-03T17:50:54.393Z,3.42
2022-08-03T17:53:30.768Z,3.72
2022-08-03T17:56:38.832Z,3.20
2022-08-03T17:59:08.393Z,2.97
2022-08-03T18:02:09.516Z,3.08
2022-08-03T18:04:55.484Z,2.70
2022-08-03T18:07:41.147Z,2.75
2022-08-03T18:10:11.305Z,2.80
2022-08-03T18:12:51.981Z,2.80
2022-08-03T18:15:26.415Z,4.00
2022-08-03T18:18:01.853Z,3.72
2022-08-03T18:20:41.088Z,3.00
2022-08-03T18:26:04.916Z,3.20
2022-08-03T18:28:35.097Z,3.60
2022-08-03T18:31:05.918Z,3.17
2022-08-03T18:34:32.422Z,2.60
2022-08-03T18:36:30.127Z,3.67
2022-08-03T18:39:02.705Z,3.40
2022-08-03T18:41:34.333Z,3.08
2022-08-03T18:44:08.469Z,3.67
2022-08-03T18:47:16.112Z,2.90
2022-08-03T18:49:53.977Z,2.75
2022-08-03T18:52:30.655Z,3.28
2022-08-03T18:55:19.778Z,3.40
2022-08-03T18:57:56.590Z,3.10
2022-08-03T19:00:42.643Z,3.95
2022-08-03T19:03:20.446Z,3.00
2022-08-03T19:06:02.281Z,2.95
2022-08-03T19:08:42.449Z,2.97
2022-08-03T19:11:22.400Z,2.85
2022-08-03T19:13:59.710Z,2.85
2022-08-03T19:16:35.806Z,2.63
2022-08-03T19:19:11.045Z,3.03
2022-08-03T19:21:43.255Z,3.47
2022-08-03T19:24:14.698Z,2.75
2022-08-03T19:26:48.616Z,3.00
2022-08-03T19:29:24.434Z,3.47
2022-08-03T19:32:16.070Z,3.05
2022-08-03T19:34:46.703Z,2.92
2022-08-03T19:37:15.777Z,2.80
2022-08-03T19:39:44.667Z,2.50
2022-08-03T19:42:32.737Z,2.80
2022-08-03T19:45:11.466Z,2.60
2022-08-03T19:47:47.290Z,2.90
2022-08-03T19:50:17.248Z,3.00
2022-08-03T19:52:48.795Z,2.78
2022-08-03T19:55:18.721Z,2.67
2022-08-03T19:57:53.789Z,3.53
2022-08-03T20:00:26.476Z,2.95
2022-08-03T20:02:59.496Z,2.35
2022-08-03T20:05:29.774Z,2.50
2022-08-03T20:08:15.310Z,3.45
2022-08-03T20:10:50.073Z,2.72
2022-08-03T20:13:21.431Z,3.10
2022-08-03T20:15:56.777Z,3.55
2022-08-03T20:18:25.455Z,2.88
2022-08-03T20:20:58.703Z,2.90
2022-08-03T20:23:37.200Z,2.70
2022-08-03T20:26:07.664Z,2.97
2022-08-03T20:28:50.335Z,2.97
2022-08-03T20:31:23.836Z,2.60
2022-08-03T20:34:01.707Z,2.53
2022-08-03T20:36:30.292Z,2.70
2022-08-03T20:38:58.864Z,2.95
2022-08-03T20:41:28.100Z,2.90
2022-08-03T20:44:01.116Z,3.78
2022-08-03T20:46:38.511Z,2.67
2022-08-03T20:49:21.358Z,2.88
2022-08-03T20:51:53.220Z,2.75
2022-08-03T20:54:31.122Z,2.90
2022-08-03T20:57:04.270Z,2.60
2022-08-03T20:59:50.338Z,2.50
2022-08-03T21:02:30.158Z,3.10
2022-08-03T21:05:03.574Z,2.70
2022-08-03T21:08:03.915Z,2.42
2022-08-03T21:10:30.742Z,2.25
2022-08-03T21:12:57.899Z,2.63
2022-08-03T21:13:16.208Z,2.47
2022-08-03T21:16:12.868Z,2.53
2022-08-03T21:18:41.857Z,3.00
2022-08-03T21:21:15.116Z,2.60
2022-08-03T21:23:48.847Z,2.55
2022-08-03T21:26:18.837Z,3.10
2022-08-03T21:28:48.739Z,3.00
2022-08-03T21:31:23.678Z,2.67
2022-08-03T21:33:55.171Z,2.67
2022-08-03T21:36:23.434Z,3.22
2022-08-03T21:38:55.929Z,2.70
2022-08-03T21:41:26.043Z,2.35
2022-08-03T21:46:24.936Z,3.10
2022-08-03T21:50:05.215Z,2.50
2022-08-03T21:51:46.364Z,2.92
2022-08-03T21:54:14.785Z,3.05
2022-08-03T21:56:44.575Z,2.85
2022-08-03T21:59:18.801Z,2.53
2022-08-03T22:01:51.493Z,2.50
2022-08-03T22:04:50.070Z,2.67
2022-08-03T22:07:13.017Z,2.47
2022-08-03T22:09:50.231Z,2.58
2022-08-03T22:12:23.858Z,3.03
2022-08-03T22:14:59.961Z,2.90
2022-08-03T22:17:53.899Z,3.08
2022-08-03T22:20:22.427Z,2.88
2022-08-03T22:22:55.923Z,2.70
2022-08-03T22:25:29.084Z,2.35
2022-08-03T22:27:59.253Z,2.70
2022-08-03T22:30:28.160Z,2.60
2022-08-03T22:32:59.108Z,2.50
2022-08-03T22:35:28.559Z,3.08
2022-08-03T22:37:58.506Z,2.55
2022-08-03T22:40:28.872Z,3.10
2022-08-03T22:42:58.502Z,2.50
2022-08-03T22:46:07.648Z,2.80
2022-08-03T22:48:18.111Z,2.92
2022-08-03T22:50:47.614Z,2.83
2022-08-03T22:53:20.286Z,2.60
2022-08-03T22:55:49.433Z,2.95
2022-08-03T22:58:18.431Z,3.00
2022-08-03T23:00:54.081Z,2.90
2022-08-03T23:03:59.981Z,3.10
2022-08-03T23:06:17.937Z,3.45
2022-08-03T23:08:48.893Z,2.60
2022-08-03T23:11:19.097Z,2.78
2022-08-03T23:13:49.617Z,4.72
2022-08-03T23:16:29.033Z,2.95
2022-08-03T23:19:16.999Z,3.25
2022-08-03T23:22:00.172Z,2.95
2022-08-03T23:24:31.115Z,3.30
2022-08-03T23:26:59.667Z,3.10
2022-08-03T23:29:30.065Z,2.83
2022-08-03T23:31:59.673Z,3.08
2022-08-03T23:34:46.870Z,3.28
2022-08-03T23:37:16.048Z,3.10
2022-08-03T23:39:47.380Z,3.08
2022-08-03T23:42:18.548Z,2.80
2022-08-03T23:44:47.631Z,2.70
2022-08-03T23:47:16.388Z,2.80
2022-08-03T23:49:46.147Z,3.70
2022-08-03T23:52:24.196Z,3.15
2022-08-03T23:55:04.293Z,2.80
2022-08-03T23:57:41.801Z,3.22
